Terminal Aerodrome Forecast
Issued by NWS

Home | Current Version | Previous Version | Text Only | Print | Product List | Glossary On
Versions: 1 2 3 4 5 6 7 8 9 10 11 12 13 14 15 16
000
FTUS43 KDDC 200500
TAFGCK
TAF
KGCK 200520Z 2006/2106 19010KT P6SM SCT120 BKN200
      TEMPO 2007/2010 P6SM -SHRA BKN060
     FM201500 16011KT P6SM SCT040 BKN080=

USA.gov is the U.S. government's official web portal to all federal, state and local government web resources and services.